createdAt,value
2018-06-02T00:01:33.759Z,17.20
2018-06-02T00:04:01.423Z,17.20
2018-06-02T00:06:28.961Z,17.20
2018-06-02T00:08:56.550Z,17.20
2018-06-02T00:11:24.163Z,17.20
2018-06-02T00:16:25.685Z,17.20
2018-06-02T00:18:53.221Z,17.20
2018-06-02T00:21:20.767Z,17.20
2018-06-02T00:23:49.090Z,17.10
2018-06-02T00:26:16.632Z,17.10
2018-06-02T00:28:44.168Z,17.10
2018-06-02T00:31:12.547Z,17.10
2018-06-02T00:33:40.852Z,17.10
2018-06-02T00:36:08.389Z,17.00
2018-06-02T00:38:35.937Z,17.00
2018-06-02T00:41:04.243Z,17.10
2018-06-02T00:43:31.769Z,17.00
2018-06-02T00:46:00.087Z,17.00
2018-06-02T00:48:27.659Z,17.00
2018-06-02T00:50:55.194Z,17.00
2018-06-02T00:53:22.767Z,17.00
2018-06-02T00:55:50.317Z,17.00
2018-06-02T00:58:17.865Z,17.00
2018-06-02T01:00:45.413Z,17.00
2018-06-02T01:03:13.801Z,17.00
2018-06-02T01:05:42.124Z,17.00
2018-06-02T01:08:09.662Z,17.00
2018-06-02T01:10:37.254Z,17.00
2018-06-02T01:13:04.796Z,17.00
2018-06-02T01:15:32.344Z,17.00
2018-06-02T01:17:59.919Z,17.00
2018-06-02T01:20:27.460Z,16.90
2018-06-02T01:22:54.996Z,17.00
2018-06-02T01:25:23.296Z,16.90
2018-06-02T01:27:50.857Z,17.00
2018-06-02T01:30:18.422Z,17.00
2018-06-02T01:32:45.954Z,17.00
2018-06-02T01:35:14.443Z,17.00
2018-06-02T01:37:41.989Z,16.90
2018-06-02T01:40:10.292Z,16.90
2018-06-02T01:42:37.834Z,16.90
2018-06-02T01:45:06.164Z,16.90
2018-06-02T01:47:33.704Z,16.80
2018-06-02T01:50:01.268Z,16.90
2018-06-02T01:52:28.922Z,16.80
2018-06-02T01:54:56.460Z,16.80
2018-06-02T01:57:24.876Z,16.80
2018-06-02T01:59:52.440Z,16.70
2018-06-02T02:02:19.979Z,16.70
2018-06-02T02:04:47.541Z,16.70
2018-06-02T02:07:15.096Z,16.70
2018-06-02T02:09:42.668Z,16.70
2018-06-02T02:12:10.238Z,16.70
2018-06-02T02:14:37.787Z,16.70
2018-06-02T02:17:05.331Z,16.60
2018-06-02T02:19:32.909Z,16.60
2018-06-02T02:22:00.449Z,16.50
2018-06-02T02:24:28.001Z,16.50
2018-06-02T02:26:56.403Z,16.50
2018-06-02T02:29:23.979Z,16.50
2018-06-02T02:31:51.525Z,16.50
2018-06-02T02:34:19.077Z,16.40
2018-06-02T02:36:46.657Z,16.40
2018-06-02T02:39:14.217Z,16.40
2018-06-02T02:41:41.743Z,16.30
2018-06-02T02:44:09.305Z,16.30
2018-06-02T02:46:37.707Z,16.30
2018-06-02T02:49:05.256Z,16.20
2018-06-02T02:51:32.838Z,16.20
2018-06-02T02:54:00.385Z,16.20
2018-06-02T02:56:27.924Z,16.30
2018-06-02T02:58:56.236Z,16.30
2018-06-02T03:01:23.780Z,16.20
2018-06-02T03:03:51.323Z,16.20
2018-06-02T03:06:19.641Z,16.10
2018-06-02T03:08:47.182Z,16.10
2018-06-02T03:11:14.706Z,16.10
2018-06-02T03:13:43.037Z,16.00
2018-06-02T03:16:10.581Z,16.00
2018-06-02T03:18:38.553Z,16.00
2018-06-02T03:21:06.169Z,16.00
2018-06-02T03:23:34.492Z,16.00
2018-06-02T03:26:02.041Z,16.00
2018-06-02T03:28:29.594Z,16.10
2018-06-02T03:30:57.180Z,16.10
2018-06-02T03:33:24.734Z,16.10
2018-06-02T03:35:52.284Z,16.10
2018-06-02T03:38:19.816Z,16.10
2018-06-02T03:40:48.130Z,16.00
2018-06-02T03:43:15.677Z,16.00
2018-06-02T03:45:43.224Z,16.00
2018-06-02T03:48:11.539Z,16.10
2018-06-02T03:50:39.074Z,16.00
2018-06-02T03:53:06.605Z,16.00
2018-06-02T03:55:34.913Z,16.00
2018-06-02T03:58:02.468Z,16.00
2018-06-02T04:00:30.057Z,15.90
2018-06-02T04:02:57.610Z,15.90
2018-06-02T04:05:25.160Z,15.90
2018-06-02T04:07:52.689Z,15.90
2018-06-02T04:10:20.977Z,15.90
2018-06-02T04:12:49.294Z,15.90
2018-06-02T04:15:16.828Z,15.90
2018-06-02T04:17:44.377Z,15.90
2018-06-02T04:20:12.775Z,15.90
2018-06-02T04:22:40.327Z,15.90
2018-06-02T04:25:07.901Z,15.90
2018-06-02T04:27:35.442Z,15.80
2018-06-02T04:30:02.980Z,15.90
2018-06-02T04:32:31.273Z,15.90
2018-06-02T04:34:59.583Z,15.90
2018-06-02T04:37:27.120Z,15.90
2018-06-02T04:39:54.699Z,15.90
2018-06-02T04:42:22.260Z,15.90
2018-06-02T04:44:50.681Z,15.90
2018-06-02T04:47:18.977Z,15.90
2018-06-02T04:49:47.291Z,15.90
2018-06-02T04:52:14.859Z,15.90
2018-06-02T04:54:42.385Z,15.90
2018-06-02T04:57:10.798Z,15.90
2018-06-02T04:59:38.366Z,15.90
2018-06-02T05:02:05.914Z,15.90
2018-06-02T05:04:33.482Z,15.90
2018-06-02T05:07:01.013Z,15.90
2018-06-02T05:09:28.563Z,15.90
2018-06-02T05:11:56.889Z,16.00
2018-06-02T05:14:24.432Z,16.00
2018-06-02T05:16:51.961Z,16.00
2018-06-02T05:19:20.285Z,16.10
2018-06-02T05:21:47.834Z,16.10
2018-06-02T05:24:15.374Z,16.10
2018-06-02T05:26:42.926Z,16.10
2018-06-02T05:29:10.491Z,16.20
2018-06-02T05:31:38.779Z,16.20
2018-06-02T05:34:06.325Z,16.20
2018-06-02T05:36:33.876Z,16.20
2018-06-02T05:39:02.185Z,16.20
2018-06-02T05:41:29.761Z,16.20
2018-06-02T05:43:57.293Z,16.10
2018-06-02T05:46:24.867Z,16.10
2018-06-02T05:48:52.404Z,16.10
2018-06-02T05:51:20.710Z,16.20
2018-06-02T05:53:48.271Z,16.10
2018-06-02T05:56:15.818Z,16.10
2018-06-02T05:58:43.390Z,16.10
2018-06-02T06:01:10.919Z,16.20
2018-06-02T06:03:39.371Z,16.30
2018-06-02T06:06:06.893Z,16.30
2018-06-02T06:08:34.435Z,16.30
2018-06-02T06:11:01.969Z,16.40
2018-06-02T06:13:30.272Z,16.40
2018-06-02T06:15:57.814Z,16.40
2018-06-02T06:18:26.122Z,16.50
2018-06-02T06:20:58.417Z,16.60
2018-06-02T06:23:25.990Z,16.60
2018-06-02T06:25:54.794Z,16.70
2018-06-02T06:28:22.622Z,16.80
2018-06-02T06:30:50.172Z,16.80
2018-06-02T06:33:17.738Z,16.80
2018-06-02T06:35:45.279Z,16.90
2018-06-02T06:38:12.834Z,17.00
2018-06-02T06:40:40.377Z,17.00
2018-06-02T06:43:08.680Z,17.20
2018-06-02T06:45:36.290Z,17.10
2018-06-02T06:48:03.812Z,17.20
2018-06-02T06:50:31.377Z,17.30
2018-06-02T06:52:58.932Z,17.30
2018-06-02T06:55:26.460Z,17.30
2018-06-02T06:57:54.763Z,17.30
2018-06-02T07:00:22.344Z,17.30
2018-06-02T07:02:49.880Z,17.30
2018-06-02T07:05:17.416Z,17.40
2018-06-02T07:07:45.722Z,17.30
2018-06-02T07:10:13.256Z,17.30
2018-06-02T07:12:41.542Z,17.40
2018-06-02T07:15:09.094Z,17.40
2018-06-02T07:17:37.393Z,17.50
2018-06-02T07:20:04.932Z,17.40
2018-06-02T07:22:32.490Z,17.40
2018-06-02T07:25:00.794Z,17.50
2018-06-02T07:27:28.333Z,17.50
2018-06-02T07:29:56.651Z,17.50
2018-06-02T07:32:24.191Z,17.50
2018-06-02T07:34:51.718Z,17.60
2018-06-02T07:37:20.064Z,18.00
2018-06-02T07:39:47.649Z,17.90
2018-06-02T07:42:15.174Z,18.00
2018-06-02T07:44:42.722Z,18.00
2018-06-02T07:47:10.264Z,18.10
2018-06-02T07:49:37.794Z,18.10
2018-06-02T07:52:05.344Z,18.20
2018-06-02T07:54:32.884Z,18.20
2018-06-02T07:57:00.431Z,18.20
2018-06-02T07:59:27.973Z,18.20
2018-06-02T08:01:55.507Z,18.30
2018-06-02T08:04:23.813Z,18.30
2018-06-02T08:06:51.380Z,18.30
2018-06-02T08:09:18.933Z,18.40
2018-06-02T08:11:46.658Z,18.40
2018-06-02T08:14:14.976Z,18.30
2018-06-02T08:16:42.512Z,18.30
2018-06-02T08:19:10.817Z,18.20
2018-06-02T08:21:38.363Z,18.10
2018-06-02T08:24:05.893Z,18.30
2018-06-02T08:26:34.195Z,18.60
2018-06-02T08:29:01.757Z,18.60
2018-06-02T08:31:29.295Z,18.70
2018-06-02T08:33:57.603Z,18.90
2018-06-02T08:36:25.161Z,18.90
2018-06-02T08:38:52.759Z,18.90
2018-06-02T08:41:20.255Z,18.90
2018-06-02T08:43:48.561Z,18.90
2018-06-02T08:46:16.107Z,18.80
2018-06-02T08:48:44.411Z,18.90
2018-06-02T08:51:12.898Z,18.80
2018-06-02T08:53:40.431Z,18.90
2018-06-02T08:56:07.966Z,18.80
2018-06-02T08:58:35.500Z,19.00
2018-06-02T09:01:03.041Z,19.20
2018-06-02T09:03:30.581Z,19.30
2018-06-02T09:05:58.600Z,19.30
2018-06-02T09:08:26.144Z,19.30
2018-06-02T09:10:53.680Z,19.20
2018-06-02T09:13:21.225Z,19.10
2018-06-02T09:15:48.754Z,19.30
2018-06-02T09:18:16.289Z,19.50
2018-06-02T09:20:43.821Z,19.50
2018-06-02T09:23:11.376Z,19.50
2018-06-02T09:25:38.921Z,19.50
2018-06-02T09:28:06.483Z,19.60
2018-06-02T09:30:34.011Z,19.70
2018-06-02T09:33:01.549Z,19.80
2018-06-02T09:35:29.103Z,19.90
2018-06-02T09:37:56.632Z,19.90
2018-06-02T09:40:24.167Z,20.00
2018-06-02T09:42:52.468Z,20.00
2018-06-02T09:45:20.012Z,20.00
2018-06-02T09:47:48.373Z,19.90
2018-06-02T09:50:15.900Z,19.90
2018-06-02T09:52:43.434Z,19.70
2018-06-02T09:55:10.999Z,19.90
2018-06-02T09:57:38.567Z,20.00
2018-06-02T10:00:06.110Z,20.10
2018-06-02T10:02:33.635Z,20.30
2018-06-02T10:05:01.181Z,20.30
2018-06-02T10:07:28.703Z,20.30
2018-06-02T10:09:56.251Z,20.20
2018-06-02T10:12:23.783Z,20.30
2018-06-02T10:14:52.076Z,20.30
2018-06-02T10:17:20.372Z,20.50
2018-06-02T10:19:47.915Z,20.50
2018-06-02T10:22:16.216Z,20.10
2018-06-02T10:24:43.745Z,20.10
2018-06-02T10:27:12.044Z,20.00
2018-06-02T10:29:39.629Z,19.90
2018-06-02T10:32:07.150Z,20.10
2018-06-02T10:34:34.719Z,20.00
2018-06-02T10:37:02.252Z,19.90
2018-06-02T10:39:30.566Z,20.10
2018-06-02T10:41:58.110Z,20.10
2018-06-02T10:44:25.782Z,20.10
2018-06-02T10:46:53.260Z,20.20
2018-06-02T10:49:20.828Z,20.10
2018-06-02T10:51:48.362Z,20.10
2018-06-02T10:54:15.897Z,20.10
2018-06-02T10:56:44.420Z,19.70
2018-06-02T10:59:11.998Z,19.70
2018-06-02T11:01:39.673Z,19.70
2018-06-02T11:04:07.308Z,19.60
2018-06-02T11:06:34.880Z,19.50
2018-06-02T11:09:02.494Z,19.50
2018-06-02T11:11:30.024Z,19.50
2018-06-02T11:13:59.066Z,19.40
2018-06-02T11:16:26.618Z,19.50
2018-06-02T11:18:55.036Z,19.50
2018-06-02T11:21:22.597Z,19.40
2018-06-02T11:23:50.144Z,19.30
2018-06-02T11:26:17.688Z,19.20
2018-06-02T11:28:45.242Z,19.30
2018-06-02T11:31:12.786Z,19.20
2018-06-02T11:33:41.095Z,19.20
2018-06-02T11:36:08.630Z,19.20
2018-06-02T11:38:36.935Z,19.20
2018-06-02T11:41:04.487Z,19.20
2018-06-02T11:43:32.029Z,19.30
2018-06-02T11:46:01.302Z,19.30
2018-06-02T11:48:28.854Z,19.30
2018-06-02T11:50:56.390Z,19.40
2018-06-02T11:53:23.915Z,19.50
2018-06-02T11:55:51.519Z,19.70
2018-06-02T11:58:19.161Z,19.70
2018-06-02T12:00:46.703Z,19.50
2018-06-02T12:03:14.281Z,19.50
2018-06-02T12:05:41.815Z,19.50
2018-06-02T12:08:10.127Z,19.50
2018-06-02T12:10:37.674Z,19.50
2018-06-02T12:13:05.338Z,19.40
2018-06-02T12:15:32.877Z,19.40
2018-06-02T12:18:00.482Z,19.60
2018-06-02T12:20:28.010Z,19.70
2018-06-02T12:22:55.595Z,19.80
2018-06-02T12:25:23.143Z,19.80
2018-06-02T12:27:50.670Z,19.80
2018-06-02T12:30:18.988Z,19.80
2018-06-02T12:32:46.530Z,19.80
2018-06-02T12:35:14.070Z,19.70
2018-06-02T12:37:42.363Z,19.90
2018-06-02T12:40:09.909Z,19.90
2018-06-02T12:42:38.217Z,19.90
2018-06-02T12:45:06.815Z,19.90
2018-06-02T12:47:34.375Z,19.80
2018-06-02T12:50:02.151Z,19.80
2018-06-02T12:52:29.688Z,19.70
2018-06-02T12:54:57.365Z,19.80
2018-06-02T12:57:24.908Z,20.00
2018-06-02T12:59:52.438Z,20.10
2018-06-02T13:02:20.751Z,20.30
2018-06-02T13:04:48.313Z,20.30
2018-06-02T13:07:15.859Z,20.40
2018-06-02T13:09:43.414Z,20.40
2018-06-02T13:12:10.956Z,20.30
2018-06-02T13:14:39.300Z,20.10
2018-06-02T13:17:06.794Z,20.10
2018-06-02T13:19:35.079Z,20.00
2018-06-02T13:22:03.374Z,20.00
2018-06-02T13:24:30.913Z,20.00
2018-06-02T13:26:59.323Z,20.10
2018-06-02T13:29:26.853Z,20.10
2018-06-02T13:31:55.166Z,20.10
2018-06-02T13:34:22.721Z,20.10
2018-06-02T13:36:50.264Z,20.10
2018-06-02T13:39:17.813Z,20.00
2018-06-02T13:41:46.108Z,20.10
2018-06-02T13:44:13.638Z,20.10
2018-06-02T13:46:41.933Z,20.20
2018-06-02T13:49:09.467Z,20.20
2018-06-02T13:51:37.760Z,20.30
2018-06-02T13:54:06.070Z,20.40
2018-06-02T13:56:33.612Z,20.40
2018-06-02T13:59:01.188Z,20.50
2018-06-02T14:01:28.732Z,20.50
2018-06-02T14:03:56.266Z,20.50
2018-06-02T14:06:24.571Z,20.60
2018-06-02T14:08:52.131Z,20.60
2018-06-02T14:11:19.672Z,20.60
2018-06-02T14:13:47.986Z,20.80
2018-06-02T14:16:15.524Z,20.80
2018-06-02T14:18:43.120Z,20.80
2018-06-02T14:21:11.376Z,20.80
2018-06-02T14:23:38.920Z,20.70
2018-06-02T14:26:06.466Z,20.80
2018-06-02T14:28:34.762Z,21.10
2018-06-02T14:31:02.308Z,21.10
2018-06-02T14:33:30.631Z,21.70
2018-06-02T14:35:58.159Z,21.70
2018-06-02T14:38:25.711Z,21.80
2018-06-02T14:40:54.045Z,22.20
2018-06-02T14:43:21.548Z,22.10
2018-06-02T14:45:49.858Z,22.30
2018-06-02T14:48:17.383Z,22.20
2018-06-02T14:50:45.693Z,22.60
2018-06-02T14:53:13.685Z,22.70
2018-06-02T14:55:41.208Z,22.40
2018-06-02T14:58:08.738Z,22.10
2018-06-02T15:00:37.047Z,22.10
2018-06-02T15:03:04.577Z,22.10
2018-06-02T15:05:32.881Z,21.70
2018-06-02T15:08:00.418Z,21.70
2018-06-02T15:10:28.705Z,21.60
2018-06-02T15:12:57.003Z,21.50
2018-06-02T15:15:24.560Z,21.50
2018-06-02T15:17:52.102Z,21.50
2018-06-02T15:20:20.386Z,21.60
2018-06-02T15:22:47.929Z,21.60
2018-06-02T15:25:16.227Z,21.80
2018-06-02T15:27:43.775Z,21.80
2018-06-02T15:30:12.081Z,22.10
2018-06-02T15:32:39.605Z,22.10
2018-06-02T15:35:07.921Z,22.10
2018-06-02T15:37:35.477Z,22.10
2018-06-02T15:40:03.017Z,22.10
2018-06-02T15:42:31.334Z,22.20
2018-06-02T15:44:58.899Z,22.10
2018-06-02T15:47:26.464Z,22.10
2018-06-02T15:49:53.998Z,22.30
2018-06-02T15:52:21.545Z,22.30
2018-06-02T15:54:49.083Z,22.40
2018-06-02T15:57:17.376Z,22.40
2018-06-02T15:59:45.796Z,22.30
2018-06-02T16:02:13.321Z,22.20
2018-06-02T16:04:40.847Z,22.30
2018-06-02T16:07:09.886Z,22.40
2018-06-02T16:09:37.410Z,22.40
2018-06-02T16:14:38.571Z,22.20
2018-06-02T16:17:06.111Z,22.00
2018-06-02T16:19:33.637Z,21.90
2018-06-02T16:22:01.271Z,22.00
2018-06-02T16:24:28.862Z,22.10
2018-06-02T16:26:56.400Z,22.10
2018-06-02T16:29:23.950Z,22.10
2018-06-02T16:31:52.243Z,22.10
2018-06-02T16:34:19.766Z,22.00
2018-06-02T16:36:47.313Z,22.10
2018-06-02T16:39:14.836Z,22.10
2018-06-02T16:41:42.490Z,21.90
2018-06-02T16:44:10.033Z,21.80
2018-06-02T16:46:38.343Z,21.50
2018-06-02T16:49:05.865Z,21.50
2018-06-02T16:51:34.169Z,21.40
2018-06-02T16:54:01.713Z,21.40
2018-06-02T16:56:29.269Z,21.30
2018-06-02T16:58:57.590Z,21.50
2018-06-02T17:01:25.132Z,21.40
2018-06-02T17:03:52.669Z,21.40
2018-06-02T17:06:21.006Z,21.30
2018-06-02T17:08:48.657Z,21.30
2018-06-02T17:11:16.219Z,21.30
2018-06-02T17:13:43.839Z,21.30
2018-06-02T17:16:11.421Z,21.20
2018-06-02T17:18:38.975Z,21.30
2018-06-02T17:21:06.532Z,21.50
2018-06-02T17:23:34.061Z,21.50
2018-06-02T17:26:02.389Z,21.50
2018-06-02T17:28:29.947Z,21.50
2018-06-02T17:30:57.518Z,21.40
2018-06-02T17:33:25.076Z,21.30
2018-06-02T17:35:52.622Z,21.30
2018-06-02T17:38:20.165Z,21.10
2018-06-02T17:40:47.704Z,21.10
2018-06-02T17:43:16.015Z,21.00
2018-06-02T17:45:43.571Z,21.00
2018-06-02T17:48:11.144Z,20.90
2018-06-02T17:50:38.697Z,20.90
2018-06-02T17:53:06.246Z,20.90
2018-06-02T17:55:33.775Z,21.00
2018-06-02T17:58:02.097Z,20.90
2018-06-02T18:00:29.634Z,20.90
2018-06-02T18:02:57.189Z,20.90
2018-06-02T18:05:25.505Z,20.80
2018-06-02T18:07:53.064Z,20.70
2018-06-02T18:10:20.618Z,20.80
2018-06-02T18:12:48.170Z,20.80
2018-06-02T18:15:15.706Z,20.80
2018-06-02T18:17:43.997Z,20.70
2018-06-02T18:20:11.543Z,20.70
2018-06-02T18:22:39.876Z,20.70
2018-06-02T18:25:07.447Z,20.70
2018-06-02T18:27:34.994Z,20.60
2018-06-02T18:30:02.548Z,20.50
2018-06-02T18:32:30.088Z,20.50
2018-06-02T18:34:57.653Z,20.40
2018-06-02T18:37:25.226Z,20.40
2018-06-02T18:39:52.778Z,20.50
2018-06-02T18:42:20.486Z,20.40
2018-06-02T18:44:48.038Z,20.40
2018-06-02T18:47:15.577Z,20.30
2018-06-02T18:49:43.144Z,20.20
2018-06-02T18:52:10.690Z,20.20
2018-06-02T18:54:39.004Z,20.20
2018-06-02T18:57:06.586Z,20.20
2018-06-02T18:59:34.898Z,20.10
2018-06-02T19:02:02.465Z,20.10
2018-06-02T19:04:30.128Z,20.00
2018-06-02T19:06:57.658Z,20.00
2018-06-02T19:09:25.222Z,20.00
2018-06-02T19:11:52.774Z,20.10
2018-06-02T19:14:21.088Z,20.10
2018-06-02T19:16:48.632Z,20.10
2018-06-02T19:19:18.434Z,20.00
2018-06-02T19:21:45.983Z,20.00
2018-06-02T19:24:14.401Z,20.00
2018-06-02T19:26:41.960Z,20.00
2018-06-02T19:29:10.022Z,20.00
2018-06-02T19:31:38.590Z,20.00
2018-06-02T19:34:06.439Z,20.00
2018-06-02T19:36:34.754Z,19.90
2018-06-02T19:39:02.308Z,19.90
2018-06-02T19:41:29.872Z,19.90
2018-06-02T19:43:57.498Z,19.80
2018-06-02T19:46:25.800Z,19.80
2018-06-02T19:48:53.343Z,19.80
2018-06-02T19:51:21.752Z,19.80
2018-06-02T19:53:49.291Z,19.70
2018-06-02T19:56:17.766Z,19.80
2018-06-02T19:58:46.078Z,19.70
2018-06-02T20:01:13.621Z,19.70
2018-06-02T20:03:41.197Z,19.70
2018-06-02T20:06:08.734Z,19.70
2018-06-02T20:08:36.277Z,19.70
2018-06-02T20:11:03.950Z,19.70
2018-06-02T20:13:31.518Z,19.70
2018-06-02T20:15:59.069Z,19.70
2018-06-02T20:18:27.379Z,19.70
2018-06-02T20:20:54.915Z,19.70
2018-06-02T20:23:22.499Z,19.70
2018-06-02T20:25:50.044Z,19.70
2018-06-02T20:28:17.575Z,19.70
2018-06-02T20:30:45.220Z,19.60
2018-06-02T20:33:12.780Z,19.60
2018-06-02T20:35:40.308Z,19.50
2018-06-02T20:38:07.840Z,19.50
2018-06-02T20:40:35.393Z,19.40
2018-06-02T20:43:03.801Z,19.20
2018-06-02T20:45:31.333Z,19.20
2018-06-02T20:47:59.656Z,19.10
2018-06-02T20:50:27.302Z,19.00
2018-06-02T20:52:54.843Z,19.00
2018-06-02T20:55:22.401Z,18.90
2018-06-02T20:57:49.941Z,18.90
2018-06-02T21:00:18.350Z,18.80
2018-06-02T21:02:45.922Z,18.70
2018-06-02T21:05:13.464Z,18.70
2018-06-02T21:07:41.015Z,18.70
2018-06-02T21:10:09.319Z,18.60
2018-06-02T21:12:37.879Z,18.60
2018-06-02T21:15:06.196Z,18.60
2018-06-02T21:17:33.736Z,18.60
2018-06-02T21:20:01.291Z,18.70
2018-06-02T21:22:28.863Z,18.60
2018-06-02T21:24:56.419Z,18.60
2018-06-02T21:27:23.981Z,18.60
2018-06-02T21:29:51.551Z,18.70
2018-06-02T21:32:19.145Z,18.60
2018-06-02T21:34:46.779Z,18.70
2018-06-02T21:37:14.305Z,18.70
2018-06-02T21:39:42.625Z,18.70
2018-06-02T21:42:10.168Z,18.70
2018-06-02T21:44:37.715Z,18.80
2018-06-02T21:47:05.269Z,18.70
2018-06-02T21:49:32.855Z,18.70
2018-06-02T21:52:00.395Z,18.70
2018-06-02T21:54:27.989Z,18.70
2018-06-02T21:56:55.518Z,18.70
2018-06-02T21:59:23.067Z,18.70
2018-06-02T22:01:51.397Z,18.70
2018-06-02T22:04:18.936Z,18.80
2018-06-02T22:06:46.467Z,18.80
2018-06-02T22:09:14.023Z,18.80
2018-06-02T22:11:41.563Z,18.80
2018-06-02T22:14:09.092Z,18.80
2018-06-02T22:16:36.633Z,18.80
2018-06-02T22:19:04.166Z,18.80
2018-06-02T22:21:32.474Z,18.70
2018-06-02T22:24:00.013Z,18.70
2018-06-02T22:26:27.598Z,18.70
2018-06-02T22:28:55.144Z,18.70
2018-06-02T22:31:22.696Z,18.70
2018-06-02T22:33:50.224Z,18.70
2018-06-02T22:36:18.594Z,18.60
2018-06-02T22:38:46.096Z,18.60
2018-06-02T22:41:13.634Z,18.60
2018-06-02T22:43:41.927Z,18.60
2018-06-02T22:46:09.454Z,18.60
2018-06-02T22:48:37.006Z,18.60
2018-06-02T22:51:04.629Z,18.50
2018-06-02T22:53:32.186Z,18.50
2018-06-02T22:55:59.719Z,18.50
2018-06-02T22:58:28.026Z,18.40
2018-06-02T23:00:55.574Z,18.40
2018-06-02T23:03:23.104Z,18.40
2018-06-02T23:05:51.415Z,18.50
2018-06-02T23:08:18.954Z,18.40
2018-06-02T23:10:47.365Z,18.40
2018-06-02T23:13:14.906Z,18.40
2018-06-02T23:15:42.502Z,18.40
2018-06-02T23:18:10.039Z,18.40
2018-06-02T23:20:37.619Z,18.40
2018-06-02T23:23:05.162Z,18.40
2018-06-02T23:25:32.740Z,18.40
2018-06-02T23:28:00.305Z,18.40
2018-06-02T23:30:27.847Z,18.40
2018-06-02T23:32:55.381Z,18.40
2018-06-02T23:35:23.683Z,18.30
2018-06-02T23:37:51.227Z,18.30
2018-06-02T23:40:18.813Z,18.30
2018-06-02T23:42:46.347Z,18.30
2018-06-02T23:45:13.896Z,18.30
2018-06-02T23:47:42.196Z,18.30
2018-06-02T23:50:09.733Z,18.30
2018-06-02T23:52:38.143Z,18.30
2018-06-02T23:55:05.696Z,18.30
2018-06-02T23:57:33.229Z,18.30
